sensor_id;sensor_type;location;lat;lon;timestamp;P1;durP1;ratioP1;P2;durP2;ratioP2
63203;SDS011;49297;43.210;27.914;2023-02-28T00:01:25;4.18;;;2.88;;
63203;SDS011;49297;43.210;27.914;2023-02-28T00:03:51;3.78;;;3.42;;
63203;SDS011;49297;43.210;27.914;2023-02-28T00:06:17;7.70;;;2.70;;
63203;SDS011;49297;43.210;27.914;2023-02-28T00:08:43;3.30;;;3.05;;
63203;SDS011;49297;43.210;27.914;2023-02-28T00:11:10;2.95;;;2.72;;
63203;SDS011;49297;43.210;27.914;2023-02-28T00:13:39;3.72;;;3.17;;
63203;SDS011;49297;43.210;27.914;2023-02-28T00:16:08;3.28;;;2.80;;
63203;SDS011;49297;43.210;27.914;2023-02-28T00:18:36;4.93;;;3.35;;
63203;SDS011;49297;43.210;27.914;2023-02-28T00:21:02;3.38;;;2.90;;
63203;SDS011;49297;43.210;27.914;2023-02-28T00:23:28;3.20;;;2.97;;
63203;SDS011;49297;43.210;27.914;2023-02-28T00:25:54;4.20;;;3.10;;
63203;SDS011;49297;43.210;27.914;2023-02-28T00:28:21;5.28;;;2.97;;
63203;SDS011;49297;43.210;27.914;2023-02-28T00:30:47;3.67;;;3.13;;
63203;SDS011;49297;43.210;27.914;2023-02-28T00:33:13;5.25;;;2.70;;
63203;SDS011;49297;43.210;27.914;2023-02-28T00:35:38;4.78;;;4.20;;
63203;SDS011;49297;43.210;27.914;2023-02-28T00:38:05;2.95;;;2.72;;
63203;SDS011;49297;43.210;27.914;2023-02-28T00:40:30;4.03;;;3.65;;
63203;SDS011;49297;43.210;27.914;2023-02-28T00:42:56;3.53;;;3.22;;
63203;SDS011;49297;43.210;27.914;2023-02-28T00:45:22;3.65;;;2.33;;
63203;SDS011;49297;43.210;27.914;2023-02-28T00:47:48;3.03;;;2.72;;
63203;SDS011;49297;43.210;27.914;2023-02-28T00:50:18;3.78;;;3.47;;
63203;SDS011;49297;43.210;27.914;2023-02-28T00:52:45;4.25;;;3.90;;
63203;SDS011;49297;43.210;27.914;2023-02-28T00:55:12;2.88;;;2.65;;
63203;SDS011;49297;43.210;27.914;2023-02-28T00:57:38;2.95;;;2.70;;
63203;SDS011;49297;43.210;27.914;2023-02-28T01:00:04;6.20;;;3.40;;
63203;SDS011;49297;43.210;27.914;2023-02-28T01:02:30;2.83;;;2.63;;
63203;SDS011;49297;43.210;27.914;2023-02-28T01:04:56;3.15;;;2.95;;
63203;SDS011;49297;43.210;27.914;2023-02-28T01:07:22;3.40;;;3.20;;
63203;SDS011;49297;43.210;27.914;2023-02-28T01:09:49;3.38;;;3.08;;
63203;SDS011;49297;43.210;27.914;2023-02-28T01:12:14;4.03;;;3.45;;
63203;SDS011;49297;43.210;27.914;2023-02-28T01:14:41;3.53;;;3.22;;
63203;SDS011;49297;43.210;27.914;2023-02-28T01:17:07;3.67;;;3.35;;
63203;SDS011;49297;43.210;27.914;2023-02-28T01:19:33;3.13;;;2.83;;
63203;SDS011;49297;43.210;27.914;2023-02-28T01:22:04;4.28;;;3.97;;
63203;SDS011;49297;43.210;27.914;2023-02-28T01:24:30;4.43;;;3.92;;
63203;SDS011;49297;43.210;27.914;2023-02-28T01:26:57;3.05;;;2.75;;
63203;SDS011;49297;43.210;27.914;2023-02-28T01:29:23;3.83;;;3.50;;
63203;SDS011;49297;43.210;27.914;2023-02-28T01:31:48;3.58;;;3.28;;
63203;SDS011;49297;43.210;27.914;2023-02-28T01:34:14;4.32;;;3.92;;
63203;SDS011;49297;43.210;27.914;2023-02-28T01:36:40;4.22;;;3.88;;
63203;SDS011;49297;43.210;27.914;2023-02-28T01:39:05;6.07;;;4.15;;
63203;SDS011;49297;43.210;27.914;2023-02-28T01:41:32;4.93;;;3.38;;
63203;SDS011;49297;43.210;27.914;2023-02-28T01:44:04;4.30;;;3.97;;
63203;SDS011;49297;43.210;27.914;2023-02-28T01:46:51;4.50;;;4.20;;
63203;SDS011;49297;43.210;27.914;2023-02-28T01:49:17;5.28;;;3.67;;
63203;SDS011;49297;43.210;27.914;2023-02-28T01:51:44;5.00;;;4.47;;
63203;SDS011;49297;43.210;27.914;2023-02-28T01:57:03;5.18;;;4.68;;
63203;SDS011;49297;43.210;27.914;2023-02-28T01:59:35;3.60;;;3.30;;
63203;SDS011;49297;43.210;27.914;2023-02-28T02:02:15;4.18;;;3.78;;
63203;SDS011;49297;43.210;27.914;2023-02-28T02:04:49;5.22;;;4.82;;
63203;SDS011;49297;43.210;27.914;2023-02-28T02:07:29;5.30;;;4.88;;
63203;SDS011;49297;43.210;27.914;2023-02-28T02:10:07;5.22;;;4.75;;
63203;SDS011;49297;43.210;27.914;2023-02-28T02:15:32;4.57;;;4.18;;
63203;SDS011;49297;43.210;27.914;2023-02-28T02:26:34;5.57;;;3.58;;
63203;SDS011;49297;43.210;27.914;2023-02-28T02:29:26;3.83;;;3.53;;
63203;SDS011;49297;43.210;27.914;2023-02-28T02:40:03;4.13;;;3.72;;
63203;SDS011;49297;43.210;27.914;2023-02-28T02:42:38;3.38;;;3.08;;
63203;SDS011;49297;43.210;27.914;2023-02-28T02:45:15;2.42;;;2.28;;
63203;SDS011;49297;43.210;27.914;2023-02-28T02:47:46;4.15;;;3.45;;
63203;SDS011;49297;43.210;27.914;2023-02-28T02:50:19;3.90;;;3.53;;
63203;SDS011;49297;43.210;27.914;2023-02-28T02:52:51;2.70;;;2.50;;
63203;SDS011;49297;43.210;27.914;2023-02-28T02:55:21;2.67;;;2.47;;
63203;SDS011;49297;43.210;27.914;2023-02-28T02:57:55;2.85;;;2.65;;
63203;SDS011;49297;43.210;27.914;2023-02-28T03:00:34;3.38;;;3.08;;
63203;SDS011;49297;43.210;27.914;2023-02-28T03:03:06;3.78;;;2.88;;
63203;SDS011;49297;43.210;27.914;2023-02-28T03:05:45;3.40;;;3.10;;
63203;SDS011;49297;43.210;27.914;2023-02-28T03:08:13;4.50;;;4.10;;
63203;SDS011;49297;43.210;27.914;2023-02-28T03:10:40;4.03;;;3.60;;
63203;SDS011;49297;43.210;27.914;2023-02-28T03:18:24;3.38;;;3.08;;
63203;SDS011;49297;43.210;27.914;2023-02-28T03:23:45;2.63;;;2.42;;
63203;SDS011;49297;43.210;27.914;2023-02-28T03:26:20;2.45;;;2.22;;
63203;SDS011;49297;43.210;27.914;2023-02-28T03:28:51;3.13;;;2.85;;
63203;SDS011;49297;43.210;27.914;2023-02-28T03:31:28;2.83;;;2.35;;
63203;SDS011;49297;43.210;27.914;2023-02-28T03:34:03;3.05;;;2.75;;
63203;SDS011;49297;43.210;27.914;2023-02-28T03:36:35;2.20;;;2.00;;
63203;SDS011;49297;43.210;27.914;2023-02-28T03:39:10;3.33;;;3.03;;
63203;SDS011;49297;43.210;27.914;2023-02-28T03:41:44;2.58;;;2.38;;
63203;SDS011;49297;43.210;27.914;2023-02-28T03:44:20;2.63;;;2.42;;
63203;SDS011;49297;43.210;27.914;2023-02-28T03:49:47;4.72;;;4.22;;
63203;SDS011;49297;43.210;27.914;2023-02-28T03:52:18;3.17;;;2.75;;
63203;SDS011;49297;43.210;27.914;2023-02-28T03:54:51;3.70;;;3.40;;
63203;SDS011;49297;43.210;27.914;2023-02-28T03:57:27;3.53;;;3.22;;
63203;SDS011;49297;43.210;27.914;2023-02-28T03:59:57;3.25;;;2.92;;
63203;SDS011;49297;43.210;27.914;2023-02-28T04:02:31;4.25;;;3.85;;
63203;SDS011;49297;43.210;27.914;2023-02-28T04:04:57;3.83;;;3.47;;
63203;SDS011;49297;43.210;27.914;2023-02-28T04:07:24;4.03;;;3.67;;
63203;SDS011;49297;43.210;27.914;2023-02-28T04:09:55;3.83;;;3.53;;
63203;SDS011;49297;43.210;27.914;2023-02-28T04:12:21;4.47;;;4.03;;
63203;SDS011;49297;43.210;27.914;2023-02-28T04:14:48;4.22;;;3.83;;
63203;SDS011;49297;43.210;27.914;2023-02-28T04:17:15;5.32;;;4.72;;
63203;SDS011;49297;43.210;27.914;2023-02-28T04:19:41;4.03;;;3.72;;
63203;SDS011;49297;43.210;27.914;2023-02-28T04:22:08;4.13;;;3.72;;
63203;SDS011;49297;43.210;27.914;2023-02-28T04:24:35;8.50;;;4.25;;
63203;SDS011;49297;43.210;27.914;2023-02-28T04:27:01;5.10;;;3.83;;
63203;SDS011;49297;43.210;27.914;2023-02-28T04:29:28;3.65;;;3.30;;
63203;SDS011;49297;43.210;27.914;2023-02-28T04:31:55;4.13;;;3.78;;
63203;SDS011;49297;43.210;27.914;2023-02-28T04:34:28;4.47;;;4.07;;
63203;SDS011;49297;43.210;27.914;2023-02-28T04:36:56;6.65;;;4.50;;
63203;SDS011;49297;43.210;27.914;2023-02-28T04:39:24;5.75;;;4.82;;
63203;SDS011;49297;43.210;27.914;2023-02-28T04:41:50;4.22;;;3.83;;
63203;SDS011;49297;43.210;27.914;2023-02-28T04:44:16;7.32;;;4.70;;
63203;SDS011;49297;43.210;27.914;2023-02-28T04:46:42;5.13;;;4.72;;
63203;SDS011;49297;43.210;27.914;2023-02-28T04:49:12;4.97;;;4.25;;
63203;SDS011;49297;43.210;27.914;2023-02-28T04:51:38;4.97;;;4.47;;
63203;SDS011;49297;43.210;27.914;2023-02-28T04:54:04;6.90;;;5.53;;
63203;SDS011;49297;43.210;27.914;2023-02-28T04:56:31;12.40;;;4.55;;
63203;SDS011;49297;43.210;27.914;2023-02-28T04:58:57;5.60;;;5.07;;
63203;SDS011;49297;43.210;27.914;2023-02-28T05:03:50;6.13;;;5.53;;
63203;SDS011;49297;43.210;27.914;2023-02-28T05:06:18;6.65;;;5.95;;
63203;SDS011;49297;43.210;27.914;2023-02-28T05:08:45;6.90;;;6.20;;
63203;SDS011;49297;43.210;27.914;2023-02-28T05:11:18;7.20;;;6.60;;
63203;SDS011;49297;43.210;27.914;2023-02-28T05:13:47;7.03;;;6.05;;
63203;SDS011;49297;43.210;27.914;2023-02-28T05:16:14;7.97;;;7.28;;
63203;SDS011;49297;43.210;27.914;2023-02-28T05:18:40;9.88;;;8.82;;
63203;SDS011;49297;43.210;27.914;2023-02-28T05:21:12;9.25;;;7.75;;
63203;SDS011;49297;43.210;27.914;2023-02-28T05:23:55;7.43;;;6.78;;
63203;SDS011;49297;43.210;27.914;2023-02-28T05:26:23;8.10;;;7.28;;
63203;SDS011;49297;43.210;27.914;2023-02-28T05:28:49;9.73;;;8.75;;
63203;SDS011;49297;43.210;27.914;2023-02-28T05:31:15;10.68;;;9.55;;
63203;SDS011;49297;43.210;27.914;2023-02-28T05:33:41;10.30;;;9.35;;
63203;SDS011;49297;43.210;27.914;2023-02-28T05:36:07;12.18;;;10.80;;
63203;SDS011;49297;43.210;27.914;2023-02-28T05:38:32;12.98;;;10.88;;
63203;SDS011;49297;43.210;27.914;2023-02-28T05:40:59;14.90;;;10.73;;
63203;SDS011;49297;43.210;27.914;2023-02-28T05:43:24;10.85;;;9.73;;
63203;SDS011;49297;43.210;27.914;2023-02-28T05:45:50;11.63;;;9.55;;
63203;SDS011;49297;43.210;27.914;2023-02-28T05:48:16;9.52;;;8.45;;
63203;SDS011;49297;43.210;27.914;2023-02-28T05:50:43;11.15;;;9.25;;
63203;SDS011;49297;43.210;27.914;2023-02-28T05:53:11;12.55;;;10.60;;
63203;SDS011;49297;43.210;27.914;2023-02-28T05:55:37;13.70;;;10.68;;
63203;SDS011;49297;43.210;27.914;2023-02-28T05:58:03;14.68;;;11.23;;
63203;SDS011;49297;43.210;27.914;2023-02-28T06:00:29;20.02;;;14.38;;
63203;SDS011;49297;43.210;27.914;2023-02-28T06:02:54;15.85;;;14.25;;
63203;SDS011;49297;43.210;27.914;2023-02-28T06:05:23;15.75;;;13.23;;
63203;SDS011;49297;43.210;27.914;2023-02-28T06:07:49;14.38;;;12.95;;
63203;SDS011;49297;43.210;27.914;2023-02-28T06:10:15;16.25;;;13.60;;
63203;SDS011;49297;43.210;27.914;2023-02-28T06:12:41;13.95;;;12.63;;
63203;SDS011;49297;43.210;27.914;2023-02-28T06:15:10;14.25;;;12.80;;
63203;SDS011;49297;43.210;27.914;2023-02-28T06:17:38;14.60;;;13.02;;
63203;SDS011;49297;43.210;27.914;2023-02-28T06:20:05;14.32;;;12.15;;
63203;SDS011;49297;43.210;27.914;2023-02-28T06:22:31;20.88;;;13.18;;
63203;SDS011;49297;43.210;27.914;2023-02-28T06:24:57;10.48;;;8.85;;
63203;SDS011;49297;43.210;27.914;2023-02-28T06:27:22;12.80;;;10.65;;
63203;SDS011;49297;43.210;27.914;2023-02-28T06:29:48;13.07;;;11.75;;
63203;SDS011;49297;43.210;27.914;2023-02-28T06:32:14;13.65;;;12.38;;
63203;SDS011;49297;43.210;27.914;2023-02-28T06:34:40;9.55;;;8.55;;
63203;SDS011;49297;43.210;27.914;2023-02-28T06:37:07;12.52;;;11.05;;
63203;SDS011;49297;43.210;27.914;2023-02-28T06:39:33;13.20;;;11.85;;
63203;SDS011;49297;43.210;27.914;2023-02-28T06:41:59;11.57;;;10.48;;
63203;SDS011;49297;43.210;27.914;2023-02-28T06:44:24;12.43;;;9.73;;
63203;SDS011;49297;43.210;27.914;2023-02-28T06:46:50;12.73;;;11.43;;
63203;SDS011;49297;43.210;27.914;2023-02-28T06:49:16;13.23;;;11.95;;
63203;SDS011;49297;43.210;27.914;2023-02-28T06:51:43;14.48;;;11.13;;
63203;SDS011;49297;43.210;27.914;2023-02-28T06:54:12;10.10;;;8.57;;
63203;SDS011;49297;43.210;27.914;2023-02-28T06:56:39;10.85;;;9.90;;
63203;SDS011;49297;43.210;27.914;2023-02-28T06:59:04;9.52;;;8.57;;
63203;SDS011;49297;43.210;27.914;2023-02-28T07:01:31;10.90;;;9.80;;
63203;SDS011;49297;43.210;27.914;2023-02-28T07:03:58;10.43;;;9.55;;
63203;SDS011;49297;43.210;27.914;2023-02-28T07:06:25;9.60;;;8.65;;
63203;SDS011;49297;43.210;27.914;2023-02-28T07:08:52;9.57;;;8.65;;
63203;SDS011;49297;43.210;27.914;2023-02-28T07:11:19;13.30;;;11.65;;
63203;SDS011;49297;43.210;27.914;2023-02-28T07:13:48;9.73;;;8.82;;
63203;SDS011;49297;43.210;27.914;2023-02-28T07:16:14;10.48;;;9.48;;
63203;SDS011;49297;43.210;27.914;2023-02-28T07:18:40;9.63;;;8.82;;
63203;SDS011;49297;43.210;27.914;2023-02-28T07:21:07;9.05;;;8.15;;
63203;SDS011;49297;43.210;27.914;2023-02-28T07:23:34;8.77;;;8.00;;
63203;SDS011;49297;43.210;27.914;2023-02-28T07:26:01;12.00;;;10.73;;
63203;SDS011;49297;43.210;27.914;2023-02-28T07:28:26;11.27;;;10.15;;
63203;SDS011;49297;43.210;27.914;2023-02-28T07:30:52;9.40;;;8.45;;
63203;SDS011;49297;43.210;27.914;2023-02-28T07:33:18;11.43;;;10.15;;
63203;SDS011;49297;43.210;27.914;2023-02-28T07:35:44;9.50;;;8.45;;
63203;SDS011;49297;43.210;27.914;2023-02-28T07:38:10;8.60;;;7.80;;
63203;SDS011;49297;43.210;27.914;2023-02-28T07:40:36;10.65;;;9.75;;
63203;SDS011;49297;43.210;27.914;2023-02-28T07:43:02;10.48;;;9.48;;
63203;SDS011;49297;43.210;27.914;2023-02-28T07:45:29;11.93;;;10.77;;
63203;SDS011;49297;43.210;27.914;2023-02-28T07:47:57;8.27;;;7.43;;
63203;SDS011;49297;43.210;27.914;2023-02-28T07:50:23;9.20;;;8.40;;
63203;SDS011;49297;43.210;27.914;2023-02-28T07:52:49;9.85;;;7.93;;
63203;SDS011;49297;43.210;27.914;2023-02-28T07:55:15;10.85;;;9.43;;
63203;SDS011;49297;43.210;27.914;2023-02-28T07:57:41;8.80;;;7.75;;
63203;SDS011;49297;43.210;27.914;2023-02-28T08:00:09;9.73;;;8.82;;
63203;SDS011;49297;43.210;27.914;2023-02-28T08:02:36;17.67;;;15.98;;
63203;SDS011;49297;43.210;27.914;2023-02-28T08:05:02;9.48;;;8.32;;
63203;SDS011;49297;43.210;27.914;2023-02-28T08:07:28;8.95;;;8.18;;
63203;SDS011;49297;43.210;27.914;2023-02-28T08:09:54;7.78;;;6.97;;
63203;SDS011;49297;43.210;27.914;2023-02-28T08:12:20;9.35;;;8.02;;
63203;SDS011;49297;43.210;27.914;2023-02-28T08:14:46;8.45;;;7.72;;
63203;SDS011;49297;43.210;27.914;2023-02-28T08:17:11;10.20;;;9.18;;
63203;SDS011;49297;43.210;27.914;2023-02-28T08:19:37;8.05;;;7.22;;
63203;SDS011;49297;43.210;27.914;2023-02-28T08:22:03;9.55;;;8.55;;
63203;SDS011;49297;43.210;27.914;2023-02-28T08:24:29;7.47;;;6.60;;
63203;SDS011;49297;43.210;27.914;2023-02-28T08:26:55;8.60;;;7.72;;
63203;SDS011;49297;43.210;27.914;2023-02-28T08:29:21;8.13;;;7.43;;
63203;SDS011;49297;43.210;27.914;2023-02-28T08:31:47;8.45;;;7.70;;
63203;SDS011;49297;43.210;27.914;2023-02-28T08:34:14;9.10;;;8.20;;
63203;SDS011;49297;43.210;27.914;2023-02-28T08:36:41;8.30;;;7.50;;
63203;SDS011;49297;43.210;27.914;2023-02-28T08:39:11;7.03;;;6.30;;
63203;SDS011;49297;43.210;27.914;2023-02-28T08:41:38;9.60;;;8.25;;
63203;SDS011;49297;43.210;27.914;2023-02-28T08:44:04;10.77;;;9.88;;
63203;SDS011;49297;43.210;27.914;2023-02-28T08:46:30;7.72;;;7.03;;
63203;SDS011;49297;43.210;27.914;2023-02-28T08:48:56;8.32;;;7.53;;
63203;SDS011;49297;43.210;27.914;2023-02-28T08:51:27;9.95;;;8.75;;
63203;SDS011;49297;43.210;27.914;2023-02-28T08:53:54;9.75;;;8.07;;
63203;SDS011;49297;43.210;27.914;2023-02-28T08:56:28;10.52;;;9.52;;
63203;SDS011;49297;43.210;27.914;2023-02-28T08:58:55;11.70;;;10.55;;
63203;SDS011;49297;43.210;27.914;2023-02-28T09:01:23;12.25;;;10.70;;
63203;SDS011;49297;43.210;27.914;2023-02-28T09:03:52;8.43;;;7.63;;
63203;SDS011;49297;43.210;27.914;2023-02-28T09:06:20;7.80;;;6.82;;
63203;SDS011;49297;43.210;27.914;2023-02-28T09:08:47;11.60;;;10.63;;
63203;SDS011;49297;43.210;27.914;2023-02-28T09:11:13;8.32;;;6.93;;
63203;SDS011;49297;43.210;27.914;2023-02-28T09:13:40;8.70;;;7.63;;
63203;SDS011;49297;43.210;27.914;2023-02-28T09:16:06;8.95;;;8.05;;
63203;SDS011;49297;43.210;27.914;2023-02-28T09:18:35;9.65;;;8.65;;
63203;SDS011;49297;43.210;27.914;2023-02-28T09:21:10;6.97;;;6.32;;
63203;SDS011;49297;43.210;27.914;2023-02-28T09:23:40;8.40;;;7.68;;
63203;SDS011;49297;43.210;27.914;2023-02-28T09:26:06;7.53;;;6.80;;
63203;SDS011;49297;43.210;27.914;2023-02-28T09:28:33;5.85;;;5.28;;
63203;SDS011;49297;43.210;27.914;2023-02-28T09:30:58;7.75;;;7.10;;
63203;SDS011;49297;43.210;27.914;2023-02-28T09:33:25;7.55;;;6.20;;
63203;SDS011;49297;43.210;27.914;2023-02-28T09:35:51;9.38;;;8.23;;
63203;SDS011;49297;43.210;27.914;2023-02-28T09:38:24;6.80;;;6.07;;
63203;SDS011;49297;43.210;27.914;2023-02-28T09:40:51;6.88;;;6.22;;
63203;SDS011;49297;43.210;27.914;2023-02-28T09:43:20;9.18;;;8.27;;
63203;SDS011;49297;43.210;27.914;2023-02-28T09:45:57;9.02;;;6.85;;
63203;SDS011;49297;43.210;27.914;2023-02-28T09:48:31;7.75;;;7.05;;
63203;SDS011;49297;43.210;27.914;2023-02-28T09:53:57;7.53;;;6.82;;
63203;SDS011;49297;43.210;27.914;2023-02-28T09:56:32;7.28;;;6.57;;
63203;SDS011;49297;43.210;27.914;2023-02-28T10:01:55;7.57;;;6.97;;
63203;SDS011;49297;43.210;27.914;2023-02-28T10:04:36;7.50;;;6.90;;
63203;SDS011;49297;43.210;27.914;2023-02-28T10:10:13;6.90;;;6.20;;
63203;SDS011;49297;43.210;27.914;2023-02-28T10:12:54;5.57;;;5.07;;
63203;SDS011;49297;43.210;27.914;2023-02-28T10:15:24;6.72;;;6.13;;
63203;SDS011;49297;43.210;27.914;2023-02-28T10:17:54;8.68;;;7.25;;
63203;SDS011;49297;43.210;27.914;2023-02-28T10:20:25;6.78;;;5.63;;
63203;SDS011;49297;43.210;27.914;2023-02-28T10:26:18;5.22;;;4.80;;
63203;SDS011;49297;43.210;27.914;2023-02-28T10:28:44;8.13;;;7.28;;
63203;SDS011;49297;43.210;27.914;2023-02-28T10:31:15;7.65;;;6.85;;
63203;SDS011;49297;43.210;27.914;2023-02-28T10:33:44;11.68;;;9.95;;
63203;SDS011;49297;43.210;27.914;2023-02-28T10:36:15;6.75;;;6.13;;
63203;SDS011;49297;43.210;27.914;2023-02-28T10:41:14;5.32;;;4.68;;
63203;SDS011;49297;43.210;27.914;2023-02-28T10:43:42;6.75;;;6.03;;
63203;SDS011;49297;43.210;27.914;2023-02-28T10:48:37;5.82;;;5.32;;
63203;SDS011;49297;43.210;27.914;2023-02-28T10:51:06;7.60;;;6.70;;
63203;SDS011;49297;43.210;27.914;2023-02-28T10:53:54;10.85;;;6.10;;
63203;SDS011;49297;43.210;27.914;2023-02-28T10:56:21;6.25;;;5.13;;
63203;SDS011;49297;43.210;27.914;2023-02-28T11:01:37;8.40;;;6.72;;
63203;SDS011;49297;43.210;27.914;2023-02-28T11:07:04;5.85;;;5.25;;
63203;SDS011;49297;43.210;27.914;2023-02-28T11:09:44;9.88;;;7.28;;
63203;SDS011;49297;43.210;27.914;2023-02-28T11:12:36;8.02;;;6.40;;
63203;SDS011;49297;43.210;27.914;2023-02-28T11:15:26;7.20;;;6.50;;
63203;SDS011;49297;43.210;27.914;2023-02-28T11:17:59;7.10;;;6.20;;
63203;SDS011;49297;43.210;27.914;2023-02-28T11:20:30;7.22;;;6.63;;
63203;SDS011;49297;43.210;27.914;2023-02-28T11:22:59;9.23;;;6.55;;
63203;SDS011;49297;43.210;27.914;2023-02-28T11:25:35;9.75;;;8.85;;
63203;SDS011;49297;43.210;27.914;2023-02-28T11:28:04;6.68;;;5.93;;
63203;SDS011;49297;43.210;27.914;2023-02-28T11:30:33;8.73;;;7.85;;
63203;SDS011;49297;43.210;27.914;2023-02-28T11:35:58;8.75;;;6.95;;
63203;SDS011;49297;43.210;27.914;2023-02-28T11:38:27;9.27;;;8.43;;
63203;SDS011;49297;43.210;27.914;2023-02-28T11:51:21;7.10;;;6.43;;
63203;SDS011;49297;43.210;27.914;2023-02-28T11:53:59;8.02;;;7.22;;
63203;SDS011;49297;43.210;27.914;2023-02-28T11:56:39;6.78;;;6.07;;
63203;SDS011;49297;43.210;27.914;2023-02-28T12:08:03;6.45;;;5.85;;
63203;SDS011;49297;43.210;27.914;2023-02-28T12:10:44;6.63;;;6.03;;
63203;SDS011;49297;43.210;27.914;2023-02-28T12:21:52;6.63;;;5.78;;
63203;SDS011;49297;43.210;27.914;2023-02-28T12:27:37;7.75;;;6.43;;
63203;SDS011;49297;43.210;27.914;2023-02-28T12:30:16;12.93;;;6.28;;
63203;SDS011;49297;43.210;27.914;2023-02-28T12:32:49;8.35;;;7.63;;
63203;SDS011;49297;43.210;27.914;2023-02-28T12:35:31;7.82;;;6.45;;
63203;SDS011;49297;43.210;27.914;2023-02-28T12:40:57;9.82;;;6.43;;
63203;SDS011;49297;43.210;27.914;2023-02-28T12:43:33;8.32;;;7.50;;
63203;SDS011;49297;43.210;27.914;2023-02-28T12:46:15;10.85;;;8.18;;
63203;SDS011;49297;43.210;27.914;2023-02-28T12:48:52;8.63;;;7.57;;
63203;SDS011;49297;43.210;27.914;2023-02-28T12:51:22;8.70;;;6.63;;
63203;SDS011;49297;43.210;27.914;2023-02-28T12:53:55;9.15;;;7.43;;
63203;SDS011;49297;43.210;27.914;2023-02-28T12:56:48;11.30;;;7.35;;
63203;SDS011;49297;43.210;27.914;2023-02-28T12:59:39;8.10;;;7.25;;
63203;SDS011;49297;43.210;27.914;2023-02-28T13:10:46;14.80;;;10.27;;
63203;SDS011;49297;43.210;27.914;2023-02-28T13:13:20;9.27;;;8.48;;
63203;SDS011;49297;43.210;27.914;2023-02-28T13:16:06;8.73;;;7.18;;
63203;SDS011;49297;43.210;27.914;2023-02-28T13:21:02;10.48;;;7.90;;
63203;SDS011;49297;43.210;27.914;2023-02-28T13:26:22;8.10;;;7.30;;
63203;SDS011;49297;43.210;27.914;2023-02-28T13:34:32;18.10;;;8.85;;
63203;SDS011;49297;43.210;27.914;2023-02-28T13:47:43;24.08;;;12.55;;
63203;SDS011;49297;43.210;27.914;2023-02-28T13:53:02;11.77;;;10.48;;
63203;SDS011;49297;43.210;27.914;2023-02-28T14:01:43;10.82;;;9.75;;
63203;SDS011;49297;43.210;27.914;2023-02-28T14:07:26;11.18;;;10.05;;
63203;SDS011;49297;43.210;27.914;2023-02-28T14:10:02;14.25;;;10.70;;
63203;SDS011;49297;43.210;27.914;2023-02-28T14:17:56;15.70;;;10.73;;
63203;SDS011;49297;43.210;27.914;2023-02-28T14:20:27;14.82;;;13.35;;
63203;SDS011;49297;43.210;27.914;2023-02-28T14:31:54;10.93;;;8.82;;
63203;SDS011;49297;43.210;27.914;2023-02-28T14:34:30;15.00;;;9.85;;
63203;SDS011;49297;43.210;27.914;2023-02-28T14:37:09;11.02;;;9.82;;
63203;SDS011;49297;43.210;27.914;2023-02-28T14:39:41;9.45;;;8.57;;
63203;SDS011;49297;43.210;27.914;2023-02-28T14:42:28;16.92;;;9.95;;
63203;SDS011;49297;43.210;27.914;2023-02-28T14:44:58;16.33;;;9.98;;
63203;SDS011;49297;43.210;27.914;2023-02-28T14:47:27;9.05;;;8.18;;
63203;SDS011;49297;43.210;27.914;2023-02-28T14:49:58;10.93;;;9.75;;
63203;SDS011;49297;43.210;27.914;2023-02-28T14:52:26;10.32;;;8.50;;
63203;SDS011;49297;43.210;27.914;2023-02-28T14:54:55;11.52;;;9.15;;
63203;SDS011;49297;43.210;27.914;2023-02-28T14:57:30;10.30;;;8.82;;
63203;SDS011;49297;43.210;27.914;2023-02-28T15:00:09;10.55;;;9.20;;
63203;SDS011;49297;43.210;27.914;2023-02-28T15:02:40;10.45;;;9.35;;
63203;SDS011;49297;43.210;27.914;2023-02-28T15:07:45;9.35;;;8.18;;
63203;SDS011;49297;43.210;27.914;2023-02-28T15:13:04;11.43;;;8.23;;
63203;SDS011;49297;43.210;27.914;2023-02-28T15:18:01;11.27;;;10.18;;
63203;SDS011;49297;43.210;27.914;2023-02-28T15:20:30;12.25;;;9.38;;
63203;SDS011;49297;43.210;27.914;2023-02-28T15:22:58;11.10;;;9.88;;
63203;SDS011;49297;43.210;27.914;2023-02-28T15:25:24;22.05;;;10.80;;
63203;SDS011;49297;43.210;27.914;2023-02-28T15:27:55;14.40;;;12.43;;
63203;SDS011;49297;43.210;27.914;2023-02-28T15:33:18;11.35;;;9.88;;
63203;SDS011;49297;43.210;27.914;2023-02-28T15:35:46;19.15;;;10.55;;
63203;SDS011;49297;43.210;27.914;2023-02-28T15:38:18;13.90;;;11.77;;
63203;SDS011;49297;43.210;27.914;2023-02-28T15:40:58;9.95;;;8.95;;
63203;SDS011;49297;43.210;27.914;2023-02-28T15:44:13;11.27;;;10.10;;
63203;SDS011;49297;43.210;27.914;2023-02-28T15:46:36;12.63;;;11.43;;
63203;SDS011;49297;43.210;27.914;2023-02-28T15:49:02;15.45;;;10.98;;
63203;SDS011;49297;43.210;27.914;2023-02-28T15:51:36;17.63;;;11.75;;
63203;SDS011;49297;43.210;27.914;2023-02-28T15:54:07;11.07;;;9.98;;
63203;SDS011;49297;43.210;27.914;2023-02-28T15:56:44;12.88;;;11.57;;
63203;SDS011;49297;43.210;27.914;2023-02-28T15:59:14;15.10;;;11.63;;
63203;SDS011;49297;43.210;27.914;2023-02-28T16:01:43;11.05;;;10.05;;
63203;SDS011;49297;43.210;27.914;2023-02-28T16:04:16;22.98;;;11.68;;
63203;SDS011;49297;43.210;27.914;2023-02-28T16:09:26;18.33;;;13.75;;
63203;SDS011;49297;43.210;27.914;2023-02-28T16:11:53;23.50;;;17.45;;
63203;SDS011;49297;43.210;27.914;2023-02-28T16:14:22;20.92;;;16.85;;
63203;SDS011;49297;43.210;27.914;2023-02-28T16:16:52;16.80;;;14.85;;
63203;SDS011;49297;43.210;27.914;2023-02-28T16:19:21;23.73;;;21.20;;
63203;SDS011;49297;43.210;27.914;2023-02-28T16:21:48;29.92;;;14.25;;
63203;SDS011;49297;43.210;27.914;2023-02-28T16:24:14;14.55;;;13.13;;
63203;SDS011;49297;43.210;27.914;2023-02-28T16:26:40;16.55;;;11.35;;
63203;SDS011;49297;43.210;27.914;2023-02-28T16:29:16;11.38;;;9.77;;
63203;SDS011;49297;43.210;27.914;2023-02-28T16:31:49;16.65;;;12.05;;
63203;SDS011;49297;43.210;27.914;2023-02-28T16:34:15;11.73;;;9.95;;
63203;SDS011;49297;43.210;27.914;2023-02-28T16:36:40;10.07;;;8.15;;
63203;SDS011;49297;43.210;27.914;2023-02-28T16:39:06;11.07;;;8.80;;
63203;SDS011;49297;43.210;27.914;2023-02-28T16:41:32;11.32;;;8.00;;
63203;SDS011;49297;43.210;27.914;2023-02-28T16:43:59;17.20;;;9.85;;
63203;SDS011;49297;43.210;27.914;2023-02-28T16:46:30;9.52;;;8.40;;
63203;SDS011;49297;43.210;27.914;2023-02-28T16:49:00;11.07;;;8.15;;
63203;SDS011;49297;43.210;27.914;2023-02-28T16:51:26;17.55;;;10.55;;
63203;SDS011;49297;43.210;27.914;2023-02-28T16:53:52;12.02;;;9.77;;
63203;SDS011;49297;43.210;27.914;2023-02-28T16:56:21;10.10;;;9.10;;
63203;SDS011;49297;43.210;27.914;2023-02-28T16:58:49;11.93;;;7.72;;
63203;SDS011;49297;43.210;27.914;2023-02-28T17:01:16;9.57;;;8.57;;
63203;SDS011;49297;43.210;27.914;2023-02-28T17:03:47;10.32;;;8.32;;
63203;SDS011;49297;43.210;27.914;2023-02-28T17:06:21;15.68;;;9.80;;
63203;SDS011;49297;43.210;27.914;2023-02-28T17:08:49;12.07;;;9.52;;
63203;SDS011;49297;43.210;27.914;2023-02-28T17:11:16;9.68;;;8.68;;
63203;SDS011;49297;43.210;27.914;2023-02-28T17:13:43;12.45;;;10.00;;
63203;SDS011;49297;43.210;27.914;2023-02-28T17:18:59;10.93;;;9.73;;
63203;SDS011;49297;43.210;27.914;2023-02-28T17:21:26;10.15;;;8.82;;
63203;SDS011;49297;43.210;27.914;2023-02-28T17:23:53;12.10;;;10.95;;
63203;SDS011;49297;43.210;27.914;2023-02-28T17:26:19;10.82;;;9.73;;
63203;SDS011;49297;43.210;27.914;2023-02-28T17:28:47;10.20;;;8.48;;
63203;SDS011;49297;43.210;27.914;2023-02-28T17:31:13;11.02;;;8.93;;